sensor_id;sensor_type;location;lat;lon;timestamp;pressure;altitude;pressure_sealevel;temperature
74485;BMP280;62942;52.462;10.846;2023-10-13T00:00:47;100510;;;
74485;BMP280;62942;52.462;10.846;2023-10-13T00:01:58;100500;;;
74485;BMP280;62942;52.462;10.846;2023-10-13T00:03:07;100500;;;
74485;BMP280;62942;52.462;10.846;2023-10-13T00:04:17;100500;;;
74485;BMP280;62942;52.462;10.846;2023-10-13T00:05:27;100490;;;
74485;BMP280;62942;52.462;10.846;2023-10-13T00:06:37;100490;;;
74485;BMP280;62942;52.462;10.846;2023-10-13T00:07:37;100500;;;
74485;BMP280;62942;52.462;10.846;2023-10-13T00:08:47;100500;;;
74485;BMP280;62942;52.462;10.846;2023-10-13T00:09:57;100500;;;
74485;BMP280;62942;52.462;10.846;2023-10-13T00:11:11;100490;;;
74485;BMP280;62942;52.462;10.846;2023-10-13T00:12:17;100490;;;
74485;BMP280;62942;52.462;10.846;2023-10-13T00:13:27;100490;;;
74485;BMP280;62942;52.462;10.846;2023-10-13T00:14:27;100490;;;
74485;BMP280;62942;52.462;10.846;2023-10-13T00:15:38;100490;;;
74485;BMP280;62942;52.462;10.846;2023-10-13T00:16:47;100490;;;
74485;BMP280;62942;52.462;10.846;2023-10-13T00:17:57;100490;;;
74485;BMP280;62942;52.462;10.846;2023-10-13T00:19:07;100490;;;
74485;BMP280;62942;52.462;10.846;2023-10-13T00:20:17;100490;;;
74485;BMP280;62942;52.462;10.846;2023-10-13T00:21:17;100480;;;
74485;BMP280;62942;52.462;10.846;2023-10-13T00:22:27;100490;;;
74485;BMP280;62942;52.462;10.846;2023-10-13T00:23:27;100480;;;
74485;BMP280;62942;52.462;10.846;2023-10-13T00:24:27;100490;;;
74485;BMP280;62942;52.462;10.846;2023-10-13T00:25:37;100490;;;
74485;BMP280;62942;52.462;10.846;2023-10-13T00:26:47;100490;;;
74485;BMP280;62942;52.462;10.846;2023-10-13T00:27:47;100490;;;
74485;BMP280;62942;52.462;10.846;2023-10-13T00:28:57;100490;;;
74485;BMP280;62942;52.462;10.846;2023-10-13T00:30:07;100490;;;
74485;BMP280;62942;52.462;10.846;2023-10-13T00:31:07;100490;;;
74485;BMP280;62942;52.462;10.846;2023-10-13T00:32:17;100480;;;
74485;BMP280;62942;52.462;10.846;2023-10-13T00:33:27;100480;;;
74485;BMP280;62942;52.462;10.846;2023-10-13T00:34:27;100480;;;
74485;BMP280;62942;52.462;10.846;2023-10-13T00:35:37;100470;;;
74485;BMP280;62942;52.462;10.846;2023-10-13T00:36:47;100470;;;
74485;BMP280;62942;52.462;10.846;2023-10-13T00:37:57;100480;;;
74485;BMP280;62942;52.462;10.846;2023-10-13T00:39:07;100480;;;
74485;BMP280;62942;52.462;10.846;2023-10-13T00:40:07;100490;;;
74485;BMP280;62942;52.462;10.846;2023-10-13T00:41:17;100490;;;
74485;BMP280;62942;52.462;10.846;2023-10-13T00:42:27;100480;;;
74485;BMP280;62942;52.462;10.846;2023-10-13T00:43:43;100480;;;
74485;BMP280;62942;52.462;10.846;2023-10-13T00:44:47;100480;;;
74485;BMP280;62942;52.462;10.846;2023-10-13T00:45:57;100480;;;
74485;BMP280;62942;52.462;10.846;2023-10-13T00:46:57;100480;;;
74485;BMP280;62942;52.462;10.846;2023-10-13T00:47:57;100480;;;
74485;BMP280;62942;52.462;10.846;2023-10-13T00:49:07;100480;;;
74485;BMP280;62942;52.462;10.846;2023-10-13T00:50:17;100480;;;
74485;BMP280;62942;52.462;10.846;2023-10-13T00:51:27;100480;;;
74485;BMP280;62942;52.462;10.846;2023-10-13T00:52:37;100480;;;
74485;BMP280;62942;52.462;10.846;2023-10-13T00:53:37;100480;;;
74485;BMP280;62942;52.462;10.846;2023-10-13T00:54:47;100480;;;
74485;BMP280;62942;52.462;10.846;2023-10-13T00:55:57;100480;;;
74485;BMP280;62942;52.462;10.846;2023-10-13T00:56:57;100480;;;
74485;BMP280;62942;52.462;10.846;2023-10-13T00:57:57;100480;;;
74485;BMP280;62942;52.462;10.846;2023-10-13T00:59:07;100480;;;
74485;BMP280;62942;52.462;10.846;2023-10-13T01:00:07;100480;;;
74485;BMP280;62942;52.462;10.846;2023-10-13T01:01:07;100480;;;
74485;BMP280;62942;52.462;10.846;2023-10-13T01:02:07;100480;;;
74485;BMP280;62942;52.462;10.846;2023-10-13T01:03:17;100470;;;
74485;BMP280;62942;52.462;10.846;2023-10-13T01:04:17;100480;;;
74485;BMP280;62942;52.462;10.846;2023-10-13T01:05:27;100470;;;
74485;BMP280;62942;52.462;10.846;2023-10-13T01:06:37;100470;;;
74485;BMP280;62942;52.462;10.846;2023-10-13T01:07:37;100450;;;
74485;BMP280;62942;52.462;10.846;2023-10-13T01:08:47;100450;;;
74485;BMP280;62942;52.462;10.846;2023-10-13T01:09:47;100460;;;
74485;BMP280;62942;52.462;10.846;2023-10-13T01:10:57;100460;;;
74485;BMP280;62942;52.462;10.846;2023-10-13T01:12:07;100460;;;
74485;BMP280;62942;52.462;10.846;2023-10-13T01:13:17;100460;;;
74485;BMP280;62942;52.462;10.846;2023-10-13T01:14:17;100460;;;
74485;BMP280;62942;52.462;10.846;2023-10-13T01:15:27;100460;;;
74485;BMP280;62942;52.462;10.846;2023-10-13T01:16:37;100460;;;
74485;BMP280;62942;52.462;10.846;2023-10-13T01:17:37;100460;;;
74485;BMP280;62942;52.462;10.846;2023-10-13T01:18:47;100450;;;
74485;BMP280;62942;52.462;10.846;2023-10-13T01:19:57;100450;;;
74485;BMP280;62942;52.462;10.846;2023-10-13T01:21:07;100450;;;
74485;BMP280;62942;52.462;10.846;2023-10-13T01:22:17;100450;;;
74485;BMP280;62942;52.462;10.846;2023-10-13T01:23:27;100450;;;
74485;BMP280;62942;52.462;10.846;2023-10-13T01:24:37;100440;;;
74485;BMP280;62942;52.462;10.846;2023-10-13T01:25:47;100450;;;
74485;BMP280;62942;52.462;10.846;2023-10-13T01:26:57;100440;;;
74485;BMP280;62942;52.462;10.846;2023-10-13T01:28:07;100440;;;
74485;BMP280;62942;52.462;10.846;2023-10-13T01:29:17;100440;;;
74485;BMP280;62942;52.462;10.846;2023-10-13T01:30:27;100450;;;
74485;BMP280;62942;52.462;10.846;2023-10-13T01:31:27;100440;;;
74485;BMP280;62942;52.462;10.846;2023-10-13T01:32:36;100440;;;
74485;BMP280;62942;52.462;10.846;2023-10-13T01:33:37;100440;;;
74485;BMP280;62942;52.462;10.846;2023-10-13T01:34:47;100450;;;
74485;BMP280;62942;52.462;10.846;2023-10-13T01:35:47;100450;;;
74485;BMP280;62942;52.462;10.846;2023-10-13T01:36:57;100450;;;
74485;BMP280;62942;52.462;10.846;2023-10-13T01:38:07;100450;;;
74485;BMP280;62942;52.462;10.846;2023-10-13T01:39:07;100440;;;
74485;BMP280;62942;52.462;10.846;2023-10-13T01:40:07;100450;;;
74485;BMP280;62942;52.462;10.846;2023-10-13T01:41:17;100450;;;
74485;BMP280;62942;52.462;10.846;2023-10-13T01:42:17;100440;;;
74485;BMP280;62942;52.462;10.846;2023-10-13T01:43:27;100440;;;
74485;BMP280;62942;52.462;10.846;2023-10-13T01:44:27;100440;;;
74485;BMP280;62942;52.462;10.846;2023-10-13T01:45:37;100440;;;
74485;BMP280;62942;52.462;10.846;2023-10-13T01:46:37;100440;;;
74485;BMP280;62942;52.462;10.846;2023-10-13T01:47:47;100450;;;
74485;BMP280;62942;52.462;10.846;2023-10-13T01:48:47;100440;;;
74485;BMP280;62942;52.462;10.846;2023-10-13T01:49:47;100440;;;
74485;BMP280;62942;52.462;10.846;2023-10-13T01:50:56;100430;;;
74485;BMP280;62942;52.462;10.846;2023-10-13T01:51:56;100440;;;
74485;BMP280;62942;52.462;10.846;2023-10-13T01:52:57;100430;;;
74485;BMP280;62942;52.462;10.846;2023-10-13T01:53:56;100430;;;
74485;BMP280;62942;52.462;10.846;2023-10-13T01:55:07;100430;;;
74485;BMP280;62942;52.462;10.846;2023-10-13T01:56:07;100430;;;
74485;BMP280;62942;52.462;10.846;2023-10-13T01:57:07;100430;;;
74485;BMP280;62942;52.462;10.846;2023-10-13T01:58:06;100430;;;
74485;BMP280;62942;52.462;10.846;2023-10-13T01:59:07;100430;;;
74485;BMP280;62942;52.462;10.846;2023-10-13T02:00:07;100420;;;
74485;BMP280;62942;52.462;10.846;2023-10-13T02:01:17;100430;;;
74485;BMP280;62942;52.462;10.846;2023-10-13T02:02:16;100430;;;
74485;BMP280;62942;52.462;10.846;2023-10-13T02:03:16;100420;;;
74485;BMP280;62942;52.462;10.846;2023-10-13T02:04:16;100420;;;
74485;BMP280;62942;52.462;10.846;2023-10-13T02:05:17;100420;;;
74485;BMP280;62942;52.462;10.846;2023-10-13T02:06:27;100420;;;
74485;BMP280;62942;52.462;10.846;2023-10-13T02:07:26;100420;;;
74485;BMP280;62942;52.462;10.846;2023-10-13T02:08:26;100420;;;
74485;BMP280;62942;52.462;10.846;2023-10-13T02:09:26;100420;;;
74485;BMP280;62942;52.462;10.846;2023-10-13T02:10:27;100420;;;
74485;BMP280;62942;52.462;10.846;2023-10-13T02:11:37;100420;;;
74485;BMP280;62942;52.462;10.846;2023-10-13T02:12:46;100420;;;
74485;BMP280;62942;52.462;10.846;2023-10-13T02:13:46;100410;;;
74485;BMP280;62942;52.462;10.846;2023-10-13T02:14:57;100420;;;
74485;BMP280;62942;52.462;10.846;2023-10-13T02:16:07;100420;;;
74485;BMP280;62942;52.462;10.846;2023-10-13T02:17:06;100420;;;
74485;BMP280;62942;52.462;10.846;2023-10-13T02:18:06;100420;;;
74485;BMP280;62942;52.462;10.846;2023-10-13T02:19:16;100410;;;
74485;BMP280;62942;52.462;10.846;2023-10-13T02:20:17;100410;;;
74485;BMP280;62942;52.462;10.846;2023-10-13T02:21:16;100410;;;
74485;BMP280;62942;52.462;10.846;2023-10-13T02:22:26;100410;;;
74485;BMP280;62942;52.462;10.846;2023-10-13T02:23:36;100410;;;
74485;BMP280;62942;52.462;10.846;2023-10-13T02:24:36;100410;;;
74485;BMP280;62942;52.462;10.846;2023-10-13T02:25:37;100410;;;
74485;BMP280;62942;52.462;10.846;2023-10-13T02:26:46;100410;;;
74485;BMP280;62942;52.462;10.846;2023-10-13T02:27:46;100410;;;
74485;BMP280;62942;52.462;10.846;2023-10-13T02:28:46;100410;;;
74485;BMP280;62942;52.462;10.846;2023-10-13T02:29:56;100410;;;
74485;BMP280;62942;52.462;10.846;2023-10-13T02:30:56;100400;;;
74485;BMP280;62942;52.462;10.846;2023-10-13T02:31:56;100400;;;
74485;BMP280;62942;52.462;10.846;2023-10-13T02:33:06;100400;;;
74485;BMP280;62942;52.462;10.846;2023-10-13T02:34:16;100390;;;
74485;BMP280;62942;52.462;10.846;2023-10-13T02:35:16;100400;;;
74485;BMP280;62942;52.462;10.846;2023-10-13T02:36:26;100400;;;
74485;BMP280;62942;52.462;10.846;2023-10-13T02:37:36;100400;;;
74485;BMP280;62942;52.462;10.846;2023-10-13T02:38:46;100390;;;
74485;BMP280;62942;52.462;10.846;2023-10-13T02:39:46;100380;;;
74485;BMP280;62942;52.462;10.846;2023-10-13T02:40:47;100380;;;
74485;BMP280;62942;52.462;10.846;2023-10-13T02:41:56;100380;;;
74485;BMP280;62942;52.462;10.846;2023-10-13T02:43:06;100380;;;
74485;BMP280;62942;52.462;10.846;2023-10-13T02:44:16;100390;;;
74485;BMP280;62942;52.462;10.846;2023-10-13T02:45:26;100380;;;
74485;BMP280;62942;52.462;10.846;2023-10-13T02:46:26;100380;;;
74485;BMP280;62942;52.462;10.846;2023-10-13T02:47:36;100380;;;
74485;BMP280;62942;52.462;10.846;2023-10-13T02:48:36;100380;;;
74485;BMP280;62942;52.462;10.846;2023-10-13T02:49:36;100380;;;
74485;BMP280;62942;52.462;10.846;2023-10-13T02:50:54;100380;;;
74485;BMP280;62942;52.462;10.846;2023-10-13T02:51:46;100380;;;
74485;BMP280;62942;52.462;10.846;2023-10-13T02:52:56;100380;;;
74485;BMP280;62942;52.462;10.846;2023-10-13T02:53:56;100380;;;
74485;BMP280;62942;52.462;10.846;2023-10-13T02:55:07;100380;;;
74485;BMP280;62942;52.462;10.846;2023-10-13T02:56:16;100370;;;
74485;BMP280;62942;52.462;10.846;2023-10-13T02:57:26;100370;;;
74485;BMP280;62942;52.462;10.846;2023-10-13T02:58:36;100380;;;
74485;BMP280;62942;52.462;10.846;2023-10-13T02:59:36;100370;;;
74485;BMP280;62942;52.462;10.846;2023-10-13T03:00:36;100370;;;
74485;BMP280;62942;52.462;10.846;2023-10-13T03:01:36;100370;;;
74485;BMP280;62942;52.462;10.846;2023-10-13T03:02:46;100370;;;
74485;BMP280;62942;52.462;10.846;2023-10-13T03:03:56;100380;;;
74485;BMP280;62942;52.462;10.846;2023-10-13T03:05:07;100370;;;
74485;BMP280;62942;52.462;10.846;2023-10-13T03:06:17;100370;;;
74485;BMP280;62942;52.462;10.846;2023-10-13T03:07:16;100370;;;
74485;BMP280;62942;52.462;10.846;2023-10-13T03:08:26;100370;;;
74485;BMP280;62942;52.462;10.846;2023-10-13T03:09:36;100370;;;
74485;BMP280;62942;52.462;10.846;2023-10-13T03:10:36;100370;;;
74485;BMP280;62942;52.462;10.846;2023-10-13T03:11:47;100370;;;
74485;BMP280;62942;52.462;10.846;2023-10-13T03:12:46;100370;;;
74485;BMP280;62942;52.462;10.846;2023-10-13T03:13:56;100360;;;
74485;BMP280;62942;52.462;10.846;2023-10-13T03:15:07;100360;;;
74485;BMP280;62942;52.462;10.846;2023-10-13T03:16:11;100360;;;
74485;BMP280;62942;52.462;10.846;2023-10-13T03:17:16;100360;;;
74485;BMP280;62942;52.462;10.846;2023-10-13T03:18:16;100360;;;
74485;BMP280;62942;52.462;10.846;2023-10-13T03:19:16;100360;;;
74485;BMP280;62942;52.462;10.846;2023-10-13T03:20:26;100360;;;
74485;BMP280;62942;52.462;10.846;2023-10-13T03:21:26;100360;;;
74485;BMP280;62942;52.462;10.846;2023-10-13T03:22:36;100350;;;
74485;BMP280;62942;52.462;10.846;2023-10-13T03:23:46;100360;;;
74485;BMP280;62942;52.462;10.846;2023-10-13T03:24:46;100350;;;
74485;BMP280;62942;52.462;10.846;2023-10-13T03:25:56;100340;;;
74485;BMP280;62942;52.462;10.846;2023-10-13T03:26:56;100340;;;
74485;BMP280;62942;52.462;10.846;2023-10-13T03:27:56;100350;;;
74485;BMP280;62942;52.462;10.846;2023-10-13T03:29:06;100340;;;
74485;BMP280;62942;52.462;10.846;2023-10-13T03:30:16;100340;;;
74485;BMP280;62942;52.462;10.846;2023-10-13T03:31:16;100340;;;
74485;BMP280;62942;52.462;10.846;2023-10-13T03:32:16;100340;;;
74485;BMP280;62942;52.462;10.846;2023-10-13T03:33:26;100340;;;
74485;BMP280;62942;52.462;10.846;2023-10-13T03:34:37;100330;;;
74485;BMP280;62942;52.462;10.846;2023-10-13T03:35:37;100330;;;
74485;BMP280;62942;52.462;10.846;2023-10-13T03:36:46;100330;;;
74485;BMP280;62942;52.462;10.846;2023-10-13T03:37:46;100330;;;
74485;BMP280;62942;52.462;10.846;2023-10-13T03:38:47;100320;;;
74485;BMP280;62942;52.462;10.846;2023-10-13T03:39:56;100310;;;
74485;BMP280;62942;52.462;10.846;2023-10-13T03:40:56;100320;;;
74485;BMP280;62942;52.462;10.846;2023-10-13T03:42:06;100320;;;
74485;BMP280;62942;52.462;10.846;2023-10-13T03:43:16;100310;;;
74485;BMP280;62942;52.462;10.846;2023-10-13T03:44:16;100310;;;
74485;BMP280;62942;52.462;10.846;2023-10-13T03:45:16;100310;;;
74485;BMP280;62942;52.462;10.846;2023-10-13T03:46:26;100310;;;
74485;BMP280;62942;52.462;10.846;2023-10-13T03:47:36;100310;;;
74485;BMP280;62942;52.462;10.846;2023-10-13T03:48:46;100310;;;
74485;BMP280;62942;52.462;10.846;2023-10-13T03:49:56;100310;;;
74485;BMP280;62942;52.462;10.846;2023-10-13T03:50:57;100310;;;
74485;BMP280;62942;52.462;10.846;2023-10-13T03:52:06;100300;;;
74485;BMP280;62942;52.462;10.846;2023-10-13T03:53:16;100310;;;
74485;BMP280;62942;52.462;10.846;2023-10-13T03:54:16;100310;;;
74485;BMP280;62942;52.462;10.846;2023-10-13T03:55:27;100300;;;
74485;BMP280;62942;52.462;10.846;2023-10-13T03:56:36;100300;;;
74485;BMP280;62942;52.462;10.846;2023-10-13T03:57:46;100300;;;
74485;BMP280;62942;52.462;10.846;2023-10-13T03:58:46;100300;;;
74485;BMP280;62942;52.462;10.846;2023-10-13T03:59:56;100310;;;
74485;BMP280;62942;52.462;10.846;2023-10-13T04:01:06;100300;;;
74485;BMP280;62942;52.462;10.846;2023-10-13T04:02:16;100300;;;
74485;BMP280;62942;52.462;10.846;2023-10-13T04:03:26;100310;;;
74485;BMP280;62942;52.462;10.846;2023-10-13T04:04:36;100300;;;
74485;BMP280;62942;52.462;10.846;2023-10-13T04:05:36;100300;;;
74485;BMP280;62942;52.462;10.846;2023-10-13T04:06:46;100300;;;
74485;BMP280;62942;52.462;10.846;2023-10-13T04:07:46;100290;;;
74485;BMP280;62942;52.462;10.846;2023-10-13T04:08:56;100290;;;
74485;BMP280;62942;52.462;10.846;2023-10-13T04:10:07;100290;;;
74485;BMP280;62942;52.462;10.846;2023-10-13T04:11:06;100280;;;
74485;BMP280;62942;52.462;10.846;2023-10-13T04:12:16;100270;;;
74485;BMP280;62942;52.462;10.846;2023-10-13T04:13:26;100280;;;
74485;BMP280;62942;52.462;10.846;2023-10-13T04:14:38;100280;;;
74485;BMP280;62942;52.462;10.846;2023-10-13T04:15:36;100280;;;
74485;BMP280;62942;52.462;10.846;2023-10-13T04:16:36;100290;;;
74485;BMP280;62942;52.462;10.846;2023-10-13T04:17:46;100280;;;
74485;BMP280;62942;52.462;10.846;2023-10-13T04:18:56;100290;;;
74485;BMP280;62942;52.462;10.846;2023-10-13T04:20:06;100290;;;
74485;BMP280;62942;52.462;10.846;2023-10-13T04:21:16;100280;;;
74485;BMP280;62942;52.462;10.846;2023-10-13T04:22:26;100290;;;
74485;BMP280;62942;52.462;10.846;2023-10-13T04:23:36;100280;;;
74485;BMP280;62942;52.462;10.846;2023-10-13T04:24:36;100280;;;
74485;BMP280;62942;52.462;10.846;2023-10-13T04:25:46;100280;;;
74485;BMP280;62942;52.462;10.846;2023-10-13T04:26:47;100280;;;
74485;BMP280;62942;52.462;10.846;2023-10-13T04:27:56;100280;;;
74485;BMP280;62942;52.462;10.846;2023-10-13T04:29:06;100280;;;
74485;BMP280;62942;52.462;10.846;2023-10-13T04:30:07;100280;;;
74485;BMP280;62942;52.462;10.846;2023-10-13T04:31:16;100280;;;
74485;BMP280;62942;52.462;10.846;2023-10-13T04:32:17;100280;;;
74485;BMP280;62942;52.462;10.846;2023-10-13T04:33:27;100280;;;
74485;BMP280;62942;52.462;10.846;2023-10-13T04:34:26;100280;;;
74485;BMP280;62942;52.462;10.846;2023-10-13T04:35:36;100270;;;
74485;BMP280;62942;52.462;10.846;2023-10-13T04:36:46;100280;;;
74485;BMP280;62942;52.462;10.846;2023-10-13T04:37:46;100270;;;
74485;BMP280;62942;52.462;10.846;2023-10-13T04:38:47;100270;;;
74485;BMP280;62942;52.462;10.846;2023-10-13T04:39:56;100270;;;
74485;BMP280;62942;52.462;10.846;2023-10-13T04:40:56;100270;;;
74485;BMP280;62942;52.462;10.846;2023-10-13T04:41:56;100270;;;
74485;BMP280;62942;52.462;10.846;2023-10-13T04:42:56;100270;;;
74485;BMP280;62942;52.462;10.846;2023-10-13T04:44:06;100260;;;
74485;BMP280;62942;52.462;10.846;2023-10-13T04:45:09;100260;;;
74485;BMP280;62942;52.462;10.846;2023-10-13T04:46:16;100260;;;
74485;BMP280;62942;52.462;10.846;2023-10-13T04:47:16;100260;;;
74485;BMP280;62942;52.462;10.846;2023-10-13T04:48:26;100260;;;
74485;BMP280;62942;52.462;10.846;2023-10-13T04:49:39;100260;;;
74485;BMP280;62942;52.462;10.846;2023-10-13T04:50:47;100260;;;
74485;BMP280;62942;52.462;10.846;2023-10-13T04:51:46;100260;;;
74485;BMP280;62942;52.462;10.846;2023-10-13T04:52:46;100260;;;
74485;BMP280;62942;52.462;10.846;2023-10-13T04:53:56;100260;;;
74485;BMP280;62942;52.462;10.846;2023-10-13T04:55:06;100250;;;
74485;BMP280;62942;52.462;10.846;2023-10-13T04:56:16;100250;;;
74485;BMP280;62942;52.462;10.846;2023-10-13T04:57:17;100240;;;
74485;BMP280;62942;52.462;10.846;2023-10-13T04:58:26;100240;;;
74485;BMP280;62942;52.462;10.846;2023-10-13T04:59:26;100250;;;
74485;BMP280;62942;52.462;10.846;2023-10-13T05:00:36;100240;;;
74485;BMP280;62942;52.462;10.846;2023-10-13T05:01:36;100240;;;
74485;BMP280;62942;52.462;10.846;2023-10-13T05:02:36;100240;;;
74485;BMP280;62942;52.462;10.846;2023-10-13T05:03:36;100230;;;
74485;BMP280;62942;52.462;10.846;2023-10-13T05:04:46;100230;;;
74485;BMP280;62942;52.462;10.846;2023-10-13T05:05:56;100230;;;
74485;BMP280;62942;52.462;10.846;2023-10-13T05:07:06;100230;;;
74485;BMP280;62942;52.462;10.846;2023-10-13T05:08:06;100230;;;
74485;BMP280;62942;52.462;10.846;2023-10-13T05:09:16;100230;;;
74485;BMP280;62942;52.462;10.846;2023-10-13T05:10:16;100210;;;
74485;BMP280;62942;52.462;10.846;2023-10-13T05:11:26;100230;;;
74485;BMP280;62942;52.462;10.846;2023-10-13T05:12:26;100230;;;
74485;BMP280;62942;52.462;10.846;2023-10-13T05:13:26;100220;;;
74485;BMP280;62942;52.462;10.846;2023-10-13T05:14:36;100220;;;
74485;BMP280;62942;52.462;10.846;2023-10-13T05:15:42;100220;;;
74485;BMP280;62942;52.462;10.846;2023-10-13T05:16:47;100220;;;
74485;BMP280;62942;52.462;10.846;2023-10-13T05:17:56;100220;;;
74485;BMP280;62942;52.462;10.846;2023-10-13T05:18:56;100230;;;
74485;BMP280;62942;52.462;10.846;2023-10-13T05:20:07;100220;;;
74485;BMP280;62942;52.462;10.846;2023-10-13T05:21:06;100220;;;
74485;BMP280;62942;52.462;10.846;2023-10-13T05:22:06;100220;;;
74485;BMP280;62942;52.462;10.846;2023-10-13T05:23:16;100230;;;
74485;BMP280;62942;52.462;10.846;2023-10-13T05:24:26;100220;;;
74485;BMP280;62942;52.462;10.846;2023-10-13T05:25:26;100220;;;
74485;BMP280;62942;52.462;10.846;2023-10-13T05:26:36;100210;;;
74485;BMP280;62942;52.462;10.846;2023-10-13T05:27:46;100210;;;
74485;BMP280;62942;52.462;10.846;2023-10-13T05:28:46;100210;;;
74485;BMP280;62942;52.462;10.846;2023-10-13T05:29:47;100210;;;
74485;BMP280;62942;52.462;10.846;2023-10-13T05:30:58;100200;;;
74485;BMP280;62942;52.462;10.846;2023-10-13T05:31:56;100200;;;
74485;BMP280;62942;52.462;10.846;2023-10-13T05:33:06;100210;;;
74485;BMP280;62942;52.462;10.846;2023-10-13T05:34:16;100200;;;
74485;BMP280;62942;52.462;10.846;2023-10-13T05:35:17;100200;;;
74485;BMP280;62942;52.462;10.846;2023-10-13T05:36:16;100200;;;
74485;BMP280;62942;52.462;10.846;2023-10-13T05:37:16;100200;;;
74485;BMP280;62942;52.462;10.846;2023-10-13T05:38:26;100200;;;
74485;BMP280;62942;52.462;10.846;2023-10-13T05:39:26;100200;;;
74485;BMP280;62942;52.462;10.846;2023-10-13T05:40:26;100200;;;
74485;BMP280;62942;52.462;10.846;2023-10-13T05:41:36;100200;;;
74485;BMP280;62942;52.462;10.846;2023-10-13T05:42:36;100200;;;
74485;BMP280;62942;52.462;10.846;2023-10-13T05:43:46;100200;;;
74485;BMP280;62942;52.462;10.846;2023-10-13T05:44:56;100200;;;
74485;BMP280;62942;52.462;10.846;2023-10-13T05:46:00;100200;;;
74485;BMP280;62942;52.462;10.846;2023-10-13T05:46:56;100200;;;
74485;BMP280;62942;52.462;10.846;2023-10-13T05:47:56;100200;;;
74485;BMP280;62942;52.462;10.846;2023-10-13T05:48:56;100200;;;
74485;BMP280;62942;52.462;10.846;2023-10-13T05:50:06;100200;;;
74485;BMP280;62942;52.462;10.846;2023-10-13T05:51:16;100200;;;
74485;BMP280;62942;52.462;10.846;2023-10-13T05:52:16;100200;;;
74485;BMP280;62942;52.462;10.846;2023-10-13T05:53:26;100190;;;
74485;BMP280;62942;52.462;10.846;2023-10-13T05:54:36;100200;;;
74485;BMP280;62942;52.462;10.846;2023-10-13T05:55:46;100200;;;
74485;BMP280;62942;52.462;10.846;2023-10-13T05:56:56;100200;;;
74485;BMP280;62942;52.462;10.846;2023-10-13T05:58:06;100200;;;
74485;BMP280;62942;52.462;10.846;2023-10-13T05:59:16;100190;;;
74485;BMP280;62942;52.462;10.846;2023-10-13T06:00:26;100190;;;
74485;BMP280;62942;52.462;10.846;2023-10-13T06:01:36;100190;;;
74485;BMP280;62942;52.462;10.846;2023-10-13T06:02:46;100190;;;
74485;BMP280;62942;52.462;10.846;2023-10-13T06:03:46;100190;;;
74485;BMP280;62942;52.462;10.846;2023-10-13T06:04:46;100190;;;
74485;BMP280;62942;52.462;10.846;2023-10-13T06:05:56;100190;;;
74485;BMP280;62942;52.462;10.846;2023-10-13T06:07:06;100190;;;
74485;BMP280;62942;52.462;10.846;2023-10-13T06:08:16;100180;;;
74485;BMP280;62942;52.462;10.846;2023-10-13T06:09:26;100190;;;
74485;BMP280;62942;52.462;10.846;2023-10-13T06:10:36;100190;;;
74485;BMP280;62942;52.462;10.846;2023-10-13T06:11:36;100190;;;
74485;BMP280;62942;52.462;10.846;2023-10-13T06:12:48;100190;;;
74485;BMP280;62942;52.462;10.846;2023-10-13T06:13:56;100180;;;
74485;BMP280;62942;52.462;10.846;2023-10-13T06:15:06;100190;;;
74485;BMP280;62942;52.462;10.846;2023-10-13T06:16:16;100190;;;
74485;BMP280;62942;52.462;10.846;2023-10-13T06:17:26;100190;;;
74485;BMP280;62942;52.462;10.846;2023-10-13T06:18:36;100190;;;
74485;BMP280;62942;52.462;10.846;2023-10-13T06:19:46;100170;;;
74485;BMP280;62942;52.462;10.846;2023-10-13T06:20:56;100170;;;
74485;BMP280;62942;52.462;10.846;2023-10-13T06:22:06;100180;;;
74485;BMP280;62942;52.462;10.846;2023-10-13T06:23:16;100180;;;
74485;BMP280;62942;52.462;10.846;2023-10-13T06:24:26;100180;;;
74485;BMP280;62942;52.462;10.846;2023-10-13T06:25:37;100180;;;
74485;BMP280;62942;52.462;10.846;2023-10-13T06:26:36;100180;;;
74485;BMP280;62942;52.462;10.846;2023-10-13T06:27:36;100180;;;
74485;BMP280;62942;52.462;10.846;2023-10-13T06:28:36;100180;;;
74485;BMP280;62942;52.462;10.846;2023-10-13T06:29:46;100180;;;
74485;BMP280;62942;52.462;10.846;2023-10-13T06:30:53;100170;;;
74485;BMP280;62942;52.462;10.846;2023-10-13T06:31:46;100170;;;
74485;BMP280;62942;52.462;10.846;2023-10-13T06:32:46;100180;;;
74485;BMP280;62942;52.462;10.846;2023-10-13T06:33:56;100180;;;
74485;BMP280;62942;52.462;10.846;2023-10-13T06:35:06;100180;;;
74485;BMP280;62942;52.462;10.846;2023-10-13T06:36:16;100180;;;
74485;BMP280;62942;52.462;10.846;2023-10-13T06:37:26;100180;;;
74485;BMP280;62942;52.462;10.846;2023-10-13T06:38:36;100180;;;
74485;BMP280;62942;52.462;10.846;2023-10-13T06:39:46;100180;;;
74485;BMP280;62942;52.462;10.846;2023-10-13T06:40:46;100180;;;
74485;BMP280;62942;52.462;10.846;2023-10-13T06:41:46;100180;;;
74485;BMP280;62942;52.462;10.846;2023-10-13T06:42:56;100180;;;
74485;BMP280;62942;52.462;10.846;2023-10-13T06:43:56;100180;;;
74485;BMP280;62942;52.462;10.846;2023-10-13T06:45:06;100180;;;
74485;BMP280;62942;52.462;10.846;2023-10-13T06:46:06;100180;;;
74485;BMP280;62942;52.462;10.846;2023-10-13T06:47:06;100180;;;
74485;BMP280;62942;52.462;10.846;2023-10-13T06:48:06;100170;;;
74485;BMP280;62942;52.462;10.846;2023-10-13T06:49:16;100180;;;
74485;BMP280;62942;52.462;10.846;2023-10-13T06:50:26;100180;;;
74485;BMP280;62942;52.462;10.846;2023-10-13T06:51:26;100180;;;
74485;BMP280;62942;52.462;10.846;2023-10-13T06:52:26;100170;;;
74485;BMP280;62942;52.462;10.846;2023-10-13T06:53:26;100180;;;
74485;BMP280;62942;52.462;10.846;2023-10-13T06:54:36;100180;;;
74485;BMP280;62942;52.462;10.846;2023-10-13T06:55:46;100180;;;